sensor_id;sensor_type;location;lat;lon;timestamp;pressure;altitude;pressure_sealevel;temperature;humidity
63088;BME280;49173;43.164;27.786;2023-05-03T00:01:00;101251.06;;;13.51;77.90
63088;BME280;49173;43.164;27.786;2023-05-03T00:03:27;101255.78;;;13.48;77.91
63088;BME280;49173;43.164;27.786;2023-05-03T00:05:53;101257.59;;;13.47;78.14
63088;BME280;49173;43.164;27.786;2023-05-03T00:08:19;101253.13;;;13.46;78.32
63088;BME280;49173;43.164;27.786;2023-05-03T00:10:46;101243.56;;;13.40;78.53
63088;BME280;49173;43.164;27.786;2023-05-03T00:13:12;101242.16;;;13.33;78.54
63088;BME280;49173;43.164;27.786;2023-05-03T00:15:37;101241.50;;;13.28;78.68
63088;BME280;49173;43.164;27.786;2023-05-03T00:18:03;101242.28;;;13.30;78.47
63088;BME280;49173;43.164;27.786;2023-05-03T00:20:30;101236.03;;;13.30;78.44
63088;BME280;49173;43.164;27.786;2023-05-03T00:22:56;101234.38;;;13.27;78.34
63088;BME280;49173;43.164;27.786;2023-05-03T00:25:22;101240.63;;;13.28;78.44
63088;BME280;49173;43.164;27.786;2023-05-03T00:27:48;101232.69;;;13.25;78.79
63088;BME280;49173;43.164;27.786;2023-05-03T00:30:13;101232.78;;;13.23;79.14
63088;BME280;49173;43.164;27.786;2023-05-03T00:32:39;101230.94;;;13.24;79.04
63088;BME280;49173;43.164;27.786;2023-05-03T00:35:05;101232.13;;;13.18;79.22
63088;BME280;49173;43.164;27.786;2023-05-03T00:37:31;101224.41;;;13.10;79.96
63088;BME280;49173;43.164;27.786;2023-05-03T00:39:57;101219.28;;;13.06;80.02
63088;BME280;49173;43.164;27.786;2023-05-03T00:42:23;101220.56;;;12.99;79.91
63088;BME280;49173;43.164;27.786;2023-05-03T00:44:49;101220.84;;;12.92;80.29
63088;BME280;49173;43.164;27.786;2023-05-03T00:47:15;101225.38;;;12.92;79.97
63088;BME280;49173;43.164;27.786;2023-05-03T00:49:41;101223.63;;;12.91;80.28
63088;BME280;49173;43.164;27.786;2023-05-03T00:52:07;101220.06;;;12.90;80.28
63088;BME280;49173;43.164;27.786;2023-05-03T00:54:34;101222.81;;;12.89;79.88
63088;BME280;49173;43.164;27.786;2023-05-03T00:57:01;101224.72;;;12.87;80.15
63088;BME280;49173;43.164;27.786;2023-05-03T00:59:28;101219.44;;;12.85;79.94
63088;BME280;49173;43.164;27.786;2023-05-03T01:01:54;101211.47;;;12.82;79.71
63088;BME280;49173;43.164;27.786;2023-05-03T01:04:20;101228.19;;;12.72;80.79
63088;BME280;49173;43.164;27.786;2023-05-03T01:17:30;101217.13;;;12.78;81.88
63088;BME280;49173;43.164;27.786;2023-05-03T01:20:04;101213.31;;;12.82;81.64
63088;BME280;49173;43.164;27.786;2023-05-03T01:22:59;101232.41;;;12.77;82.33
63088;BME280;49173;43.164;27.786;2023-05-03T01:25:27;101227.91;;;12.78;82.93
63088;BME280;49173;43.164;27.786;2023-05-03T01:27:53;101217.22;;;12.76;83.04
63088;BME280;49173;43.164;27.786;2023-05-03T01:30:21;101209.81;;;12.80;82.81
63088;BME280;49173;43.164;27.786;2023-05-03T01:33:11;101214.19;;;12.82;82.14
63088;BME280;49173;43.164;27.786;2023-05-03T01:35:59;101219.81;;;12.78;81.57
63088;BME280;49173;43.164;27.786;2023-05-03T01:38:29;101209.91;;;12.78;81.02
63088;BME280;49173;43.164;27.786;2023-05-03T01:41:17;101206.34;;;12.78;80.47
63088;BME280;49173;43.164;27.786;2023-05-03T01:44:03;101213.69;;;12.74;80.76
63088;BME280;49173;43.164;27.786;2023-05-03T01:46:48;101211.88;;;12.75;80.98
63088;BME280;49173;43.164;27.786;2023-05-03T01:49:32;101229.94;;;12.73;81.41
63088;BME280;49173;43.164;27.786;2023-05-03T01:52:18;101222.09;;;12.68;81.95
63088;BME280;49173;43.164;27.786;2023-05-03T01:55:02;101217.81;;;12.64;82.25
63088;BME280;49173;43.164;27.786;2023-05-03T01:57:46;101224.16;;;12.63;82.07
63088;BME280;49173;43.164;27.786;2023-05-03T02:00:31;101226.03;;;12.61;82.37
63088;BME280;49173;43.164;27.786;2023-05-03T02:03:15;101209.88;;;12.61;82.01
63088;BME280;49173;43.164;27.786;2023-05-03T02:06:00;101218.84;;;12.61;81.94
63088;BME280;49173;43.164;27.786;2023-05-03T02:08:44;101227.81;;;12.62;81.66
63088;BME280;49173;43.164;27.786;2023-05-03T02:11:29;101218.91;;;12.60;80.99
63088;BME280;49173;43.164;27.786;2023-05-03T02:14:13;101221.97;;;12.52;80.24
63088;BME280;49173;43.164;27.786;2023-05-03T02:16:58;101218.59;;;12.49;79.86
63088;BME280;49173;43.164;27.786;2023-05-03T02:19:43;101217.75;;;12.47;79.78
63088;BME280;49173;43.164;27.786;2023-05-03T02:22:27;101225.34;;;12.38;79.75
63088;BME280;49173;43.164;27.786;2023-05-03T02:25:11;101224.72;;;12.33;79.21
63088;BME280;49173;43.164;27.786;2023-05-03T02:27:55;101223.31;;;12.25;79.74
63088;BME280;49173;43.164;27.786;2023-05-03T02:30:41;101225.31;;;12.21;79.50
63088;BME280;49173;43.164;27.786;2023-05-03T02:33:25;101231.06;;;12.14;80.27
63088;BME280;49173;43.164;27.786;2023-05-03T02:36:10;101231.09;;;12.12;80.57
63088;BME280;49173;43.164;27.786;2023-05-03T02:38:54;101225.81;;;12.10;81.59
63088;BME280;49173;43.164;27.786;2023-05-03T02:41:39;101219.34;;;12.15;81.97
63088;BME280;49173;43.164;27.786;2023-05-03T02:44:23;101231.75;;;12.17;82.46
63088;BME280;49173;43.164;27.786;2023-05-03T02:47:09;101225.38;;;12.20;82.65
63088;BME280;49173;43.164;27.786;2023-05-03T02:49:53;101228.88;;;12.22;82.48
63088;BME280;49173;43.164;27.786;2023-05-03T02:52:37;101231.63;;;12.20;82.83
63088;BME280;49173;43.164;27.786;2023-05-03T02:55:22;101241.81;;;12.14;83.53
63088;BME280;49173;43.164;27.786;2023-05-03T02:58:06;101232.88;;;12.13;83.91
63088;BME280;49173;43.164;27.786;2023-05-03T03:00:50;101224.72;;;12.15;83.77
63088;BME280;49173;43.164;27.786;2023-05-03T03:03:35;101225.59;;;12.15;83.34
63088;BME280;49173;43.164;27.786;2023-05-03T03:06:07;101230.09;;;12.15;83.07
63088;BME280;49173;43.164;27.786;2023-05-03T03:08:51;101236.34;;;12.15;83.49
63088;BME280;49173;43.164;27.786;2023-05-03T03:11:36;101236.56;;;12.10;84.06
63088;BME280;49173;43.164;27.786;2023-05-03T03:14:20;101238.88;;;12.18;83.90
63088;BME280;49173;43.164;27.786;2023-05-03T03:17:08;101231.19;;;12.10;83.79
63088;BME280;49173;43.164;27.786;2023-05-03T03:19:52;101228.78;;;12.04;84.15
63088;BME280;49173;43.164;27.786;2023-05-03T03:22:37;101232.34;;;12.05;84.51
63088;BME280;49173;43.164;27.786;2023-05-03T03:25:22;101238.63;;;12.05;84.35
63088;BME280;49173;43.164;27.786;2023-05-03T03:28:06;101236.66;;;12.09;85.15
63088;BME280;49173;43.164;27.786;2023-05-03T03:30:51;101249.94;;;12.12;84.95
63088;BME280;49173;43.164;27.786;2023-05-03T03:33:35;101245.22;;;12.17;85.25
63088;BME280;49173;43.164;27.786;2023-05-03T03:36:19;101252.56;;;12.32;85.64
63088;BME280;49173;43.164;27.786;2023-05-03T03:39:04;101247.38;;;12.47;85.61
63088;BME280;49173;43.164;27.786;2023-05-03T03:41:49;101252.09;;;12.60;85.23
63088;BME280;49173;43.164;27.786;2023-05-03T03:44:33;101239.28;;;12.65;84.46
63088;BME280;49173;43.164;27.786;2023-05-03T03:47:18;101240.16;;;12.66;84.82
63088;BME280;49173;43.164;27.786;2023-05-03T03:50:02;101249.09;;;12.67;85.08
63088;BME280;49173;43.164;27.786;2023-05-03T03:52:28;101250.91;;;12.66;85.75
63088;BME280;49173;43.164;27.786;2023-05-03T03:54:55;101257.03;;;12.70;85.46
63088;BME280;49173;43.164;27.786;2023-05-03T03:57:21;101255.22;;;12.70;85.94
63088;BME280;49173;43.164;27.786;2023-05-03T03:59:49;101249.59;;;12.75;85.92
63088;BME280;49173;43.164;27.786;2023-05-03T04:02:15;101253.00;;;12.78;85.96
63088;BME280;49173;43.164;27.786;2023-05-03T04:04:41;101249.06;;;12.85;86.11
63088;BME280;49173;43.164;27.786;2023-05-03T04:07:08;101238.75;;;12.93;86.48
63088;BME280;49173;43.164;27.786;2023-05-03T04:09:34;101247.75;;;13.11;85.95
63088;BME280;49173;43.164;27.786;2023-05-03T04:11:59;101251.88;;;13.36;85.60
63088;BME280;49173;43.164;27.786;2023-05-03T04:14:27;101257.09;;;13.56;84.84
63088;BME280;49173;43.164;27.786;2023-05-03T04:16:52;101256.38;;;13.70;83.79
63088;BME280;49173;43.164;27.786;2023-05-03T04:19:19;101259.84;;;13.72;83.61
63088;BME280;49173;43.164;27.786;2023-05-03T04:21:46;101259.22;;;13.67;84.25
63088;BME280;49173;43.164;27.786;2023-05-03T04:24:14;101260.72;;;13.72;84.74
63088;BME280;49173;43.164;27.786;2023-05-03T04:26:40;101259.53;;;13.78;85.39
63088;BME280;49173;43.164;27.786;2023-05-03T04:29:07;101250.31;;;13.82;85.25
63088;BME280;49173;43.164;27.786;2023-05-03T04:31:34;101256.50;;;13.84;85.49
63088;BME280;49173;43.164;27.786;2023-05-03T04:34:00;101256.25;;;13.89;86.13
63088;BME280;49173;43.164;27.786;2023-05-03T04:36:26;101263.94;;;13.96;86.07
63088;BME280;49173;43.164;27.786;2023-05-03T04:38:54;101263.75;;;13.99;86.24
63088;BME280;49173;43.164;27.786;2023-05-03T04:41:21;101264.91;;;14.11;86.10
63088;BME280;49173;43.164;27.786;2023-05-03T04:43:47;101267.34;;;14.16;86.18
63088;BME280;49173;43.164;27.786;2023-05-03T04:46:12;101270.41;;;14.25;85.53
63088;BME280;49173;43.164;27.786;2023-05-03T04:48:38;101270.94;;;14.32;85.20
63088;BME280;49173;43.164;27.786;2023-05-03T04:51:04;101263.63;;;14.34;84.78
63088;BME280;49173;43.164;27.786;2023-05-03T04:53:30;101266.06;;;14.39;84.78
63088;BME280;49173;43.164;27.786;2023-05-03T04:55:56;101275.16;;;14.53;85.71
63088;BME280;49173;43.164;27.786;2023-05-03T04:58:21;101284.22;;;14.68;85.34
63088;BME280;49173;43.164;27.786;2023-05-03T05:00:47;101281.16;;;14.74;83.98
63088;BME280;49173;43.164;27.786;2023-05-03T05:03:14;101286.28;;;14.79;82.52
63088;BME280;49173;43.164;27.786;2023-05-03T05:05:39;101293.38;;;14.81;82.84
63088;BME280;49173;43.164;27.786;2023-05-03T05:08:05;101294.50;;;14.77;82.84
63088;BME280;49173;43.164;27.786;2023-05-03T05:10:32;101280.47;;;14.71;82.38
63088;BME280;49173;43.164;27.786;2023-05-03T05:13:01;101283.69;;;14.62;82.83
63088;BME280;49173;43.164;27.786;2023-05-03T05:15:26;101289.25;;;14.59;83.41
63088;BME280;49173;43.164;27.786;2023-05-03T05:17:52;101301.84;;;14.60;83.05
63088;BME280;49173;43.164;27.786;2023-05-03T05:20:18;101300.44;;;14.52;82.30
63088;BME280;49173;43.164;27.786;2023-05-03T05:22:43;101301.84;;;14.60;83.59
63088;BME280;49173;43.164;27.786;2023-05-03T05:25:09;101300.69;;;14.64;83.36
63088;BME280;49173;43.164;27.786;2023-05-03T05:27:35;101295.47;;;14.76;82.34
63088;BME280;49173;43.164;27.786;2023-05-03T05:30:01;101300.25;;;14.87;82.08
63088;BME280;49173;43.164;27.786;2023-05-03T05:32:27;101302.13;;;15.01;81.27
63088;BME280;49173;43.164;27.786;2023-05-03T05:34:52;101297.63;;;15.01;80.17
63088;BME280;49173;43.164;27.786;2023-05-03T05:37:23;101311.34;;;15.13;79.40
63088;BME280;49173;43.164;27.786;2023-05-03T05:39:49;101306.66;;;15.16;77.77
63088;BME280;49173;43.164;27.786;2023-05-03T05:42:15;101300.28;;;15.17;77.23
63088;BME280;49173;43.164;27.786;2023-05-03T05:44:41;101307.03;;;15.10;74.45
63088;BME280;49173;43.164;27.786;2023-05-03T05:47:08;101310.59;;;15.10;73.44
63088;BME280;49173;43.164;27.786;2023-05-03T05:49:34;101315.03;;;15.11;74.63
63088;BME280;49173;43.164;27.786;2023-05-03T05:52:00;101321.03;;;15.17;76.25
63088;BME280;49173;43.164;27.786;2023-05-03T05:54:26;101322.59;;;15.21;75.74
63088;BME280;49173;43.164;27.786;2023-05-03T05:56:52;101315.63;;;15.17;75.80
63088;BME280;49173;43.164;27.786;2023-05-03T05:59:18;101316.97;;;15.09;75.77
63088;BME280;49173;43.164;27.786;2023-05-03T06:01:43;101313.72;;;15.19;74.93
63088;BME280;49173;43.164;27.786;2023-05-03T06:04:11;101315.34;;;15.21;75.18
63088;BME280;49173;43.164;27.786;2023-05-03T06:06:37;101324.69;;;15.31;75.63
63088;BME280;49173;43.164;27.786;2023-05-03T06:09:03;101317.09;;;15.52;73.04
63088;BME280;49173;43.164;27.786;2023-05-03T06:11:29;101328.00;;;15.67;72.29
63088;BME280;49173;43.164;27.786;2023-05-03T06:13:56;101334.88;;;15.72;71.32
63088;BME280;49173;43.164;27.786;2023-05-03T06:16:25;101329.88;;;15.80;71.83
63088;BME280;49173;43.164;27.786;2023-05-03T06:18:51;101320.56;;;15.84;70.67
63088;BME280;49173;43.164;27.786;2023-05-03T06:21:16;101326.00;;;15.84;69.95
63088;BME280;49173;43.164;27.786;2023-05-03T06:23:42;101317.00;;;15.84;69.74
63088;BME280;49173;43.164;27.786;2023-05-03T06:26:08;101320.09;;;15.92;69.95
63088;BME280;49173;43.164;27.786;2023-05-03T06:28:34;101318.25;;;15.92;68.93
63088;BME280;49173;43.164;27.786;2023-05-03T06:31:00;101314.69;;;15.92;68.65
63088;BME280;49173;43.164;27.786;2023-05-03T06:33:26;101313.81;;;15.91;68.19
63088;BME280;49173;43.164;27.786;2023-05-03T06:35:53;101319.81;;;15.97;68.57
63088;BME280;49173;43.164;27.786;2023-05-03T06:38:18;101298.94;;;15.99;67.27
63088;BME280;49173;43.164;27.786;2023-05-03T06:40:45;101297.41;;;15.95;67.60
63088;BME280;49173;43.164;27.786;2023-05-03T06:43:10;101299.31;;;15.92;67.38
63088;BME280;49173;43.164;27.786;2023-05-03T06:45:38;101287.34;;;15.97;65.74
63088;BME280;49173;43.164;27.786;2023-05-03T06:48:04;101294.47;;;15.98;65.01
63088;BME280;49173;43.164;27.786;2023-05-03T06:50:31;101283.16;;;15.91;64.48
63088;BME280;49173;43.164;27.786;2023-05-03T06:52:56;101291.50;;;16.02;64.55
63088;BME280;49173;43.164;27.786;2023-05-03T06:55:22;101304.94;;;16.18;61.53
63088;BME280;49173;43.164;27.786;2023-05-03T06:57:48;101303.09;;;16.33;61.09
63088;BME280;49173;43.164;27.786;2023-05-03T07:00:14;101303.09;;;16.33;59.68
63088;BME280;49173;43.164;27.786;2023-05-03T07:02:40;101317.81;;;16.29;59.38
63088;BME280;49173;43.164;27.786;2023-05-03T07:05:07;101322.16;;;16.31;60.43
63088;BME280;49173;43.164;27.786;2023-05-03T07:07:33;101310.84;;;16.25;59.84
63088;BME280;49173;43.164;27.786;2023-05-03T07:09:58;101308.34;;;16.22;58.39
63088;BME280;49173;43.164;27.786;2023-05-03T07:12:24;101312.56;;;16.11;58.65
63088;BME280;49173;43.164;27.786;2023-05-03T07:14:53;101317.41;;;16.20;60.71
63088;BME280;49173;43.164;27.786;2023-05-03T07:17:20;101310.63;;;16.28;60.33
63088;BME280;49173;43.164;27.786;2023-05-03T07:19:48;101308.22;;;16.37;58.63
63088;BME280;49173;43.164;27.786;2023-05-03T07:22:14;101319.16;;;16.50;57.55
63088;BME280;49173;43.164;27.786;2023-05-03T07:24:40;101325.97;;;16.56;57.45
63088;BME280;49173;43.164;27.786;2023-05-03T07:27:06;101326.28;;;16.65;54.91
63088;BME280;49173;43.164;27.786;2023-05-03T07:29:32;101342.06;;;16.73;54.64
63088;BME280;49173;43.164;27.786;2023-05-03T07:31:58;101340.69;;;16.80;53.65
63088;BME280;49173;43.164;27.786;2023-05-03T07:34:24;101337.84;;;16.96;56.29
63088;BME280;49173;43.164;27.786;2023-05-03T07:36:51;101335.13;;;17.23;55.25
63088;BME280;49173;43.164;27.786;2023-05-03T07:39:17;101339.88;;;17.46;54.16
63088;BME280;49173;43.164;27.786;2023-05-03T07:41:43;101341.09;;;17.55;51.90
63088;BME280;49173;43.164;27.786;2023-05-03T07:44:09;101347.94;;;17.48;51.02
63088;BME280;49173;43.164;27.786;2023-05-03T07:46:35;101356.78;;;17.37;50.78
63088;BME280;49173;43.164;27.786;2023-05-03T07:49:02;101349.91;;;17.32;50.99
63088;BME280;49173;43.164;27.786;2023-05-03T07:51:29;101377.22;;;17.16;51.22
63088;BME280;49173;43.164;27.786;2023-05-03T07:53:56;101393.50;;;17.16;54.91
63088;BME280;49173;43.164;27.786;2023-05-03T07:56:22;101389.34;;;17.37;57.15
63088;BME280;49173;43.164;27.786;2023-05-03T07:58:48;101386.34;;;17.54;55.35
63088;BME280;49173;43.164;27.786;2023-05-03T08:01:14;101393.41;;;17.71;52.35
63088;BME280;49173;43.164;27.786;2023-05-03T08:03:40;101391.25;;;17.76;51.50
63088;BME280;49173;43.164;27.786;2023-05-03T08:06:09;101392.91;;;17.65;49.73
63088;BME280;49173;43.164;27.786;2023-05-03T08:08:35;101393.72;;;17.52;50.48
63088;BME280;49173;43.164;27.786;2023-05-03T08:11:02;101388.19;;;17.54;51.57
63088;BME280;49173;43.164;27.786;2023-05-03T08:13:28;101385.84;;;17.62;50.75
63088;BME280;49173;43.164;27.786;2023-05-03T08:15:54;101382.91;;;17.65;50.83
63088;BME280;49173;43.164;27.786;2023-05-03T08:18:20;101390.75;;;17.70;49.68
63088;BME280;49173;43.164;27.786;2023-05-03T08:20:46;101384.28;;;17.72;48.80
63088;BME280;49173;43.164;27.786;2023-05-03T08:23:12;101386.19;;;17.70;49.75
63088;BME280;49173;43.164;27.786;2023-05-03T08:25:37;101387.84;;;17.73;49.46
63088;BME280;49173;43.164;27.786;2023-05-03T08:28:03;101387.00;;;17.72;47.89
63088;BME280;49173;43.164;27.786;2023-05-03T08:30:29;101389.53;;;17.61;48.92
63088;BME280;49173;43.164;27.786;2023-05-03T08:32:55;101375.50;;;17.54;49.72
63088;BME280;49173;43.164;27.786;2023-05-03T08:35:21;101389.31;;;17.64;52.66
63088;BME280;49173;43.164;27.786;2023-05-03T08:37:47;101388.75;;;17.86;50.63
63088;BME280;49173;43.164;27.786;2023-05-03T08:40:13;101386.06;;;17.99;50.73
63088;BME280;49173;43.164;27.786;2023-05-03T08:42:42;101388.09;;;17.95;49.62
63088;BME280;49173;43.164;27.786;2023-05-03T08:45:12;101383.09;;;17.89;50.41
63088;BME280;49173;43.164;27.786;2023-05-03T08:47:41;101395.28;;;17.96;49.63
63088;BME280;49173;43.164;27.786;2023-05-03T08:50:14;101406.16;;;18.09;48.54
63088;BME280;49173;43.164;27.786;2023-05-03T08:52:41;101392.03;;;18.04;49.96
63088;BME280;49173;43.164;27.786;2023-05-03T08:55:09;101400.31;;;18.15;51.11
63088;BME280;49173;43.164;27.786;2023-05-03T08:57:35;101392.34;;;18.25;49.88
63088;BME280;49173;43.164;27.786;2023-05-03T09:00:02;101392.59;;;18.34;47.82
63088;BME280;49173;43.164;27.786;2023-05-03T09:02:30;101388.16;;;18.33;47.44
63088;BME280;49173;43.164;27.786;2023-05-03T09:04:59;101371.84;;;18.33;48.30
63088;BME280;49173;43.164;27.786;2023-05-03T09:07:25;101366.59;;;18.30;45.93
63088;BME280;49173;43.164;27.786;2023-05-03T09:09:51;101367.59;;;18.29;48.16
63088;BME280;49173;43.164;27.786;2023-05-03T09:12:39;101355.72;;;18.30;47.37
63088;BME280;49173;43.164;27.786;2023-05-03T09:15:06;101355.72;;;18.43;46.13
63088;BME280;49173;43.164;27.786;2023-05-03T09:17:32;101348.63;;;18.53;46.35
63088;BME280;49173;43.164;27.786;2023-05-03T09:19:58;101349.28;;;18.57;46.43
63088;BME280;49173;43.164;27.786;2023-05-03T09:22:30;101354.41;;;18.61;43.54
63088;BME280;49173;43.164;27.786;2023-05-03T09:24:58;101353.00;;;18.56;42.79
63088;BME280;49173;43.164;27.786;2023-05-03T09:27:26;101356.91;;;18.52;43.34
63088;BME280;49173;43.164;27.786;2023-05-03T09:29:52;101354.31;;;18.50;43.97
63088;BME280;49173;43.164;27.786;2023-05-03T09:32:19;101350.41;;;18.42;43.94
63088;BME280;49173;43.164;27.786;2023-05-03T09:34:46;101350.06;;;18.46;44.31
63088;BME280;49173;43.164;27.786;2023-05-03T09:37:12;101344.09;;;18.54;43.75
63088;BME280;49173;43.164;27.786;2023-05-03T09:39:42;101341.25;;;18.68;44.85
63088;BME280;49173;43.164;27.786;2023-05-03T09:42:17;101331.13;;;18.70;43.20
63088;BME280;49173;43.164;27.786;2023-05-03T09:44:47;101338.19;;;18.60;45.09
63088;BME280;49173;43.164;27.786;2023-05-03T09:47:16;101340.91;;;18.60;44.60
63088;BME280;49173;43.164;27.786;2023-05-03T09:49:43;101340.50;;;18.66;42.09
63088;BME280;49173;43.164;27.786;2023-05-03T09:52:09;101324.84;;;18.70;43.40
63088;BME280;49173;43.164;27.786;2023-05-03T09:54:36;101339.25;;;18.83;45.52
63088;BME280;49173;43.164;27.786;2023-05-03T09:57:03;101327.28;;;18.85;44.57
63088;BME280;49173;43.164;27.786;2023-05-03T09:59:37;101329.53;;;18.91;42.87
63088;BME280;49173;43.164;27.786;2023-05-03T10:02:05;101321.91;;;18.97;44.13
63088;BME280;49173;43.164;27.786;2023-05-03T10:04:40;101323.53;;;18.99;44.39
63088;BME280;49173;43.164;27.786;2023-05-03T10:07:12;101312.31;;;19.04;39.76
63088;BME280;49173;43.164;27.786;2023-05-03T10:09:45;101326.66;;;19.06;40.52
63088;BME280;49173;43.164;27.786;2023-05-03T10:12:12;101320.50;;;18.91;40.02
63088;BME280;49173;43.164;27.786;2023-05-03T10:14:43;101312.41;;;18.65;40.24
63088;BME280;49173;43.164;27.786;2023-05-03T10:17:26;101317.28;;;18.60;41.13
63088;BME280;49173;43.164;27.786;2023-05-03T10:20:17;101311.34;;;18.55;41.32
63088;BME280;49173;43.164;27.786;2023-05-03T10:23:06;101307.66;;;18.69;41.60
63088;BME280;49173;43.164;27.786;2023-05-03T10:25:35;101313.94;;;18.57;40.95
63088;BME280;49173;43.164;27.786;2023-05-03T10:28:02;101306.66;;;18.57;42.77
63088;BME280;49173;43.164;27.786;2023-05-03T10:30:32;101312.84;;;18.59;43.33
63088;BME280;49173;43.164;27.786;2023-05-03T10:35:41;101300.91;;;18.49;41.76
63088;BME280;49173;43.164;27.786;2023-05-03T10:38:19;101306.13;;;18.52;41.03
63088;BME280;49173;43.164;27.786;2023-05-03T10:40:45;101291.53;;;18.53;43.15
63088;BME280;49173;43.164;27.786;2023-05-03T10:46:02;101302.41;;;18.66;43.71
63088;BME280;49173;43.164;27.786;2023-05-03T10:48:31;101303.94;;;18.70;42.32
63088;BME280;49173;43.164;27.786;2023-05-03T10:53:49;101298.91;;;18.77;43.13
63088;BME280;49173;43.164;27.786;2023-05-03T10:56:15;101299.22;;;18.85;43.72
63088;BME280;49173;43.164;27.786;2023-05-03T10:58:42;101293.34;;;18.78;42.29
63088;BME280;49173;43.164;27.786;2023-05-03T11:01:16;101309.13;;;18.73;44.24
63088;BME280;49173;43.164;27.786;2023-05-03T11:03:45;101302.72;;;18.74;44.02
63088;BME280;49173;43.164;27.786;2023-05-03T11:06:32;101296.31;;;18.62;43.19
63088;BME280;49173;43.164;27.786;2023-05-03T11:08:59;101302.84;;;18.60;42.56
63088;BME280;49173;43.164;27.786;2023-05-03T11:11:26;101298.97;;;18.38;43.65
63088;BME280;49173;43.164;27.786;2023-05-03T11:13:52;101287.72;;;18.19;43.86
63088;BME280;49173;43.164;27.786;2023-05-03T11:16:18;101289.88;;;18.14;43.22
63088;BME280;49173;43.164;27.786;2023-05-03T11:18:45;101295.53;;;18.11;43.86
63088;BME280;49173;43.164;27.786;2023-05-03T11:21:13;101301.44;;;18.05;43.68
63088;BME280;49173;43.164;27.786;2023-05-03T11:23:40;101306.84;;;18.05;43.29
63088;BME280;49173;43.164;27.786;2023-05-03T11:26:09;101302.06;;;18.08;44.90
63088;BME280;49173;43.164;27.786;2023-05-03T11:28:42;101307.72;;;18.05;45.59
63088;BME280;49173;43.164;27.786;2023-05-03T11:31:09;101302.41;;;17.78;45.33
63088;BME280;49173;43.164;27.786;2023-05-03T11:33:36;101295.13;;;17.79;46.94
63088;BME280;49173;43.164;27.786;2023-05-03T11:36:04;101291.75;;;17.88;48.08
63088;BME280;49173;43.164;27.786;2023-05-03T11:38:36;101291.84;;;17.87;48.19
63088;BME280;49173;43.164;27.786;2023-05-03T11:41:13;101296.72;;;17.81;48.88
63088;BME280;49173;43.164;27.786;2023-05-03T11:43:47;101292.50;;;17.77;49.86
63088;BME280;49173;43.164;27.786;2023-05-03T11:46:17;101282.59;;;17.64;49.31
63088;BME280;49173;43.164;27.786;2023-05-03T11:48:44;101289.59;;;17.53;48.39
63088;BME280;49173;43.164;27.786;2023-05-03T11:51:12;101283.13;;;17.56;48.00
63088;BME280;49173;43.164;27.786;2023-05-03T11:53:40;101276.47;;;17.47;47.28
63088;BME280;49173;43.164;27.786;2023-05-03T11:56:10;101278.13;;;17.50;49.13
63088;BME280;49173;43.164;27.786;2023-05-03T11:58:48;101263.59;;;17.64;49.01
63088;BME280;49173;43.164;27.786;2023-05-03T12:01:14;101261.97;;;17.74;50.98
63088;BME280;49173;43.164;27.786;2023-05-03T12:03:40;101267.53;;;17.72;49.77
63088;BME280;49173;43.164;27.786;2023-05-03T12:06:06;101264.97;;;17.56;49.85
63088;BME280;49173;43.164;27.786;2023-05-03T12:08:32;101276.28;;;17.63;48.90
63088;BME280;49173;43.164;27.786;2023-05-03T12:11:00;101268.03;;;17.65;47.52
63088;BME280;49173;43.164;27.786;2023-05-03T12:13:30;101272.09;;;17.72;47.19
63088;BME280;49173;43.164;27.786;2023-05-03T12:16:03;101287.59;;;17.82;49.21
63088;BME280;49173;43.164;27.786;2023-05-03T12:18:47;101269.78;;;18.04;50.21
63088;BME280;49173;43.164;27.786;2023-05-03T12:21:19;101276.06;;;18.17;48.46
63088;BME280;49173;43.164;27.786;2023-05-03T12:23:47;101287.47;;;18.22;47.02
63088;BME280;49173;43.164;27.786;2023-05-03T12:26:19;101278.59;;;18.07;48.09
63088;BME280;49173;43.164;27.786;2023-05-03T12:28:48;101280.66;;;17.78;48.29
63088;BME280;49173;43.164;27.786;2023-05-03T12:31:16;101283.03;;;17.70;48.56
63088;BME280;49173;43.164;27.786;2023-05-03T12:33:42;101282.16;;;17.70;49.08
63088;BME280;49173;43.164;27.786;2023-05-03T12:36:09;101274.69;;;17.73;48.75
63088;BME280;49173;43.164;27.786;2023-05-03T12:38:36;101273.94;;;17.71;49.56
63088;BME280;49173;43.164;27.786;2023-05-03T12:41:05;101269.16;;;17.88;49.03
63088;BME280;49173;43.164;27.786;2023-05-03T12:43:35;101280.25;;;17.97;49.09
63088;BME280;49173;43.164;27.786;2023-05-03T12:46:01;101266.44;;;17.88;48.21
63088;BME280;49173;43.164;27.786;2023-05-03T12:48:29;101262.28;;;17.82;47.65
63088;BME280;49173;43.164;27.786;2023-05-03T12:50:56;101260.06;;;17.62;48.01
63088;BME280;49173;43.164;27.786;2023-05-03T12:53:26;101257.06;;;17.41;48.54
63088;BME280;49173;43.164;27.786;2023-05-03T12:55:54;101246.50;;;17.36;48.56
63088;BME280;49173;43.164;27.786;2023-05-03T12:58:21;101249.00;;;17.52;48.57
63088;BME280;49173;43.164;27.786;2023-05-03T13:00:49;101247.41;;;17.75;49.49
63088;BME280;49173;43.164;27.786;2023-05-03T13:03:15;101231.78;;;17.78;48.50
63088;BME280;49173;43.164;27.786;2023-05-03T13:05:45;101234.94;;;17.72;47.97
63088;BME280;49173;43.164;27.786;2023-05-03T13:08:13;101231.91;;;17.77;47.72
63088;BME280;49173;43.164;27.786;2023-05-03T13:10:42;101234.94;;;17.72;48.79
63088;BME280;49173;43.164;27.786;2023-05-03T13:13:11;101217.09;;;17.55;48.58
63088;BME280;49173;43.164;27.786;2023-05-03T13:15:38;101198.66;;;17.48;49.29